Time,TemperatureF,DewpointF,PressureIn,WindDirection,WindDirectionDegrees,WindSpeedMPH,WindSpeedGustMPH,Humidity,HourlyPrecipIn,Conditions,Clouds,dailyrainin,SoftwareType,DateUTC
2013-03-25 00:02:00,42.4,31.5,29.48,South,180,5.8,-999.0,65,-99.99,,,0.00,Acu-Link.com,2013-03-25 04:02:00,
2013-03-25 00:17:00,41.7,31.2,29.50,SW,225,3.7,-999.0,66,-99.99,,,0.00,Acu-Link.com,2013-03-25 04:17:00,
2013-03-25 00:32:00,41.4,30.9,29.50,SSW,202,10.4,-999.0,66,-99.99,,,0.00,Acu-Link.com,2013-03-25 04:32:00,
2013-03-25 00:47:00,41.0,29.4,29.51,SSW,202,3.2,-999.0,63,-99.99,,,0.00,Acu-Link.com,2013-03-25 04:47:00,
2013-03-25 01:03:00,40.5,28.5,29.51,West,270,2.2,-999.0,62,-99.99,,,0.00,Acu-Link.com,2013-03-25 05:03:00,
2013-03-25 01:18:00,40.3,28.3,29.53,SSW,202,4.2,-999.0,62,-99.99,,,0.00,Acu-Link.com,2013-03-25 05:18:00,
2013-03-25 01:33:00,40.1,28.5,29.53,SSW,202,4.7,-999.0,63,-99.99,,,0.00,Acu-Link.com,2013-03-25 05:33:00,
2013-03-25 01:48:00,39.7,27.8,29.53,WNW,292,4.2,-999.0,62,-99.99,,,0.00,Acu-Link.com,2013-03-25 05:48:00,
2013-03-25 02:03:00,39.6,27.7,29.54,SSW,202,4.2,-999.0,62,-99.99,,,0.00,Acu-Link.com,2013-03-25 06:03:00,
2013-03-25 02:19:00,39.2,26.9,29.54,SW,225,4.2,-999.0,61,-99.99,,,0.00,Acu-Link.com,2013-03-25 06:19:00,
2013-03-25 02:34:00,38.8,26.1,29.54,NNE,22,6.8,-999.0,60,-99.99,,,0.00,Acu-Link.com,2013-03-25 06:34:00,
2013-03-25 02:49:00,38.5,25.4,29.55,SSW,202,5.3,-999.0,59,-99.99,,,0.00,Acu-Link.com,2013-03-25 06:49:00,
2013-03-25 03:04:00,38.3,24.8,29.55,WSW,247,2.2,-999.0,58,-99.99,,,0.00,Acu-Link.com,2013-03-25 07:04:00,
2013-03-25 03:20:00,38.1,24.6,29.55,SW,225,18.1,-999.0,58,-99.99,,,0.00,Acu-Link.com,2013-03-25 07:20:00,
2013-03-25 03:35:00,37.8,24.4,29.55,NNE,22,4.2,-999.0,58,-99.99,,,0.00,Acu-Link.com,2013-03-25 07:35:00,
2013-03-25 03:50:00,37.6,24.2,29.55,SW,225,3.2,-999.0,58,-99.99,,,0.00,Acu-Link.com,2013-03-25 07:50:00,
2013-03-25 04:05:00,37.2,23.8,29.55,South,180,5.3,-999.0,58,-99.99,,,0.00,Acu-Link.com,2013-03-25 08:05:00,
2013-03-25 04:21:00,37.0,24.0,29.56,South,180,10.4,-999.0,59,-99.99,,,0.00,Acu-Link.com,2013-03-25 08:21:00,
2013-03-25 04:36:00,36.9,23.5,29.56,NNW,337,5.3,-999.0,58,-99.99,,,0.00,Acu-Link.com,2013-03-25 08:36:00,
2013-03-25 05:07:00,36.3,23.8,29.57,West,270,7.8,-999.0,60,-99.99,,,0.00,Acu-Link.com,2013-03-25 09:07:00,
2013-03-25 05:22:00,36.3,24.9,29.57,West,270,4.2,-999.0,63,-99.99,,,0.00,Acu-Link.com,2013-03-25 09:22:00,
2013-03-25 05:37:00,36.1,25.5,29.57,West,270,3.2,-999.0,65,-99.99,,,0.00,Acu-Link.com,2013-03-25 09:37:00,
2013-03-25 05:52:00,35.8,25.6,29.57,ESE,112,1.7,-999.0,66,-99.99,,,0.00,Acu-Link.com,2013-03-25 09:52:00,
2013-03-25 06:07:00,35.8,25.9,29.58,NW,315,3.7,-999.0,67,-99.99,,,0.00,Acu-Link.com,2013-03-25 10:07:00,
2013-03-25 06:23:00,35.8,25.6,29.58,SW,225,4.7,-999.0,66,-99.99,,,0.00,Acu-Link.com,2013-03-25 10:23:00,
2013-03-25 06:38:00,35.8,25.6,29.58,ESE,112,2.7,-999.0,66,-99.99,,,0.00,Acu-Link.com,2013-03-25 10:38:00,
2013-03-25 07:08:00,35.2,26.1,29.60,WSW,247,3.7,-999.0,69,-99.99,,,0.00,Acu-Link.com,2013-03-25 11:08:00,
2013-03-25 07:23:00,35.2,25.4,29.60,SW,225,3.7,-999.0,67,-99.99,,,0.00,Acu-Link.com,2013-03-25 11:23:00,
2013-03-25 07:39:00,35.2,25.0,29.61,NNW,337,5.3,-999.0,66,-99.99,,,0.00,Acu-Link.com,2013-03-25 11:39:00,
2013-03-25 07:54:00,35.1,24.9,29.60,SSW,202,6.8,-999.0,66,-99.99,,,0.00,Acu-Link.com,2013-03-25 11:54:00,
2013-03-25 08:10:00,35.1,24.9,29.61,SSW,202,1.7,-999.0,66,-99.99,,,0.00,Acu-Link.com,2013-03-25 12:10:00,
2013-03-25 08:25:00,35.1,24.9,29.62,WSW,247,5.3,-999.0,66,-99.99,,,0.00,Acu-Link.com,2013-03-25 12:25:00,
2013-03-25 08:40:00,35.2,25.4,29.62,South,180,11.4,-999.0,67,-99.99,,,0.00,Acu-Link.com,2013-03-25 12:40:00,
2013-03-25 08:55:00,35.4,25.2,29.62,SSW,202,8.3,-999.0,66,-99.99,,,0.00,Acu-Link.com,2013-03-25 12:55:00,
2013-03-25 09:10:00,35.2,25.7,29.63,SSW,202,6.3,-999.0,68,-99.99,,,0.00,Acu-Link.com,2013-03-25 13:10:00,
2013-03-25 09:25:00,35.6,26.8,29.64,SW,225,4.2,-999.0,70,-99.99,,,0.00,Acu-Link.com,2013-03-25 13:25:00,
2013-03-25 09:41:00,36.0,27.2,29.64,NNW,337,5.3,-999.0,70,-99.99,,,0.00,Acu-Link.com,2013-03-25 13:41:00,
2013-03-25 09:56:00,36.7,26.8,29.64,SW,225,8.3,-999.0,67,-99.99,,,0.00,Acu-Link.com,2013-03-25 13:56:00,
2013-03-25 10:11:00,37.4,27.1,29.64,NNW,337,3.2,-999.0,66,-99.99,,,0.00,Acu-Link.com,2013-03-25 14:11:00,
2013-03-25 10:27:00,37.0,27.1,29.65,SW,225,4.7,-999.0,67,-99.99,,,0.00,Acu-Link.com,2013-03-25 14:27:00,
2013-03-25 10:57:00,37.4,26.4,29.66,SW,225,5.8,-999.0,64,-99.99,,,0.00,Acu-Link.com,2013-03-25 14:57:00,
2013-03-25 11:12:00,38.3,26.4,29.66,NW,315,4.2,-999.0,62,-99.99,,,0.00,Acu-Link.com,2013-03-25 15:12:00,
2013-03-25 11:28:00,37.9,26.1,29.67,SW,225,3.2,-999.0,62,-99.99,,,0.00,Acu-Link.com,2013-03-25 15:28:00,
2013-03-25 11:43:00,38.5,25.8,29.68,SW,225,3.7,-999.0,60,-99.99,,,0.00,Acu-Link.com,2013-03-25 15:43:00,
2013-03-25 11:58:00,38.3,25.6,29.68,SW,225,3.2,-999.0,60,-99.99,,,0.00,Acu-Link.com,2013-03-25 15:58:00,
2013-03-25 12:13:00,38.3,25.6,29.69,NW,315,3.2,-999.0,60,-99.99,,,0.00,Acu-Link.com,2013-03-25 16:13:00,
2013-03-25 12:29:00,38.7,25.2,29.68,West,270,4.2,-999.0,58,-99.99,,,0.00,Acu-Link.com,2013-03-25 16:29:00,
2013-03-25 12:44:00,39.2,26.1,29.69,WNW,292,4.2,-999.0,59,-99.99,,,0.00,Acu-Link.com,2013-03-25 16:44:00,
2013-03-25 12:59:00,37.8,25.2,29.71,West,270,7.3,-999.0,60,-99.99,,,0.00,Acu-Link.com,2013-03-25 16:59:00,
2013-03-25 13:14:00,37.9,26.1,29.70,SSE,157,2.7,-999.0,62,-99.99,,,0.00,Acu-Link.com,2013-03-25 17:14:00,
2013-03-25 13:30:00,38.5,25.8,29.70,NNE,22,3.2,-999.0,60,-99.99,,,0.00,Acu-Link.com,2013-03-25 17:30:00,
2013-03-25 13:45:00,38.3,25.6,29.71,NNW,337,4.7,-999.0,60,-99.99,,,0.00,Acu-Link.com,2013-03-25 17:45:00,
2013-03-25 14:00:00,38.1,25.5,29.70,West,270,3.7,-999.0,60,-99.99,,,0.00,Acu-Link.com,2013-03-25 18:00:00,
2013-03-25 14:15:00,38.3,25.6,29.70,South,180,5.3,-999.0,60,-99.99,,,0.00,Acu-Link.com,2013-03-25 18:15:00,
2013-03-25 14:30:00,37.6,25.0,29.72,South,180,4.7,-999.0,60,-99.99,,,0.00,Acu-Link.com,2013-03-25 18:30:00,
2013-03-25 15:16:00,38.8,26.1,29.72,SW,225,5.3,-999.0,60,-99.99,,,0.00,Acu-Link.com,2013-03-25 19:16:00,
2013-03-25 15:32:00,39.4,26.3,29.74,West,270,5.8,-999.0,59,-99.99,,,0.00,Acu-Link.com,2013-03-25 19:32:00,
2013-03-25 15:47:00,39.4,25.9,29.73,SW,225,6.3,-999.0,58,-99.99,,,0.00,Acu-Link.com,2013-03-25 19:47:00,
2013-03-25 16:02:00,39.6,26.1,29.74,East,90,5.3,-999.0,58,-99.99,,,0.00,Acu-Link.com,2013-03-25 20:02:00,
2013-03-25 16:17:00,39.4,25.5,29.75,SSW,202,4.2,-999.0,57,-99.99,,,0.00,Acu-Link.com,2013-03-25 20:17:00,
2013-03-25 16:33:00,39.2,25.7,29.75,NW,315,1.1,-999.0,58,-99.99,,,0.00,Acu-Link.com,2013-03-25 20:33:00,
2013-03-25 16:48:00,39.4,26.3,29.76,ESE,112,2.7,-999.0,59,-99.99,,,0.00,Acu-Link.com,2013-03-25 20:48:00,
2013-03-25 17:03:00,38.8,26.1,29.77,WNW,292,2.7,-999.0,60,-99.99,,,0.00,Acu-Link.com,2013-03-25 21:03:00,
2013-03-25 17:18:00,38.3,25.6,29.77,South,180,1.7,-999.0,60,-99.99,,,0.00,Acu-Link.com,2013-03-25 21:18:00,
2013-03-25 17:33:00,38.7,26.0,29.78,West,270,4.2,-999.0,60,-99.99,,,0.00,Acu-Link.com,2013-03-25 21:33:00,
2013-03-25 17:49:00,37.8,26.0,29.79,NW,315,4.2,-999.0,62,-99.99,,,0.00,Acu-Link.com,2013-03-25 21:49:00,
2013-03-25 18:04:00,37.6,25.4,29.79,NNW,337,6.3,-999.0,61,-99.99,,,0.00,Acu-Link.com,2013-03-25 22:04:00,
2013-03-25 18:19:00,37.4,25.2,29.80,SSW,202,8.9,-999.0,61,-99.99,,,0.00,Acu-Link.com,2013-03-25 22:19:00,
2013-03-25 18:34:00,36.9,24.7,29.80,NNW,337,4.7,-999.0,61,-99.99,,,0.00,Acu-Link.com,2013-03-25 22:34:00,
2013-03-25 18:50:00,36.9,25.1,29.82,SW,225,2.7,-999.0,62,-99.99,,,0.00,Acu-Link.com,2013-03-25 22:50:00,
2013-03-25 19:05:00,36.7,25.3,29.82,SSW,202,2.7,-999.0,63,-99.99,,,0.00,Acu-Link.com,2013-03-25 23:05:00,
2013-03-25 19:20:00,36.3,25.7,29.83,West,270,2.2,-999.0,65,-99.99,,,0.00,Acu-Link.com,2013-03-25 23:20:00,
2013-03-25 19:35:00,35.8,25.6,29.84,NW,315,2.2,-999.0,66,-99.99,,,0.00,Acu-Link.com,2013-03-25 23:35:00,
2013-03-25 19:51:00,35.6,25.7,29.84,SSE,157,1.1,-999.0,67,-99.99,,,0.00,Acu-Link.com,2013-03-25 23:51:00,
2013-03-25 20:06:00,35.4,25.9,29.85,SW,225,3.2,-999.0,68,-99.99,,,0.00,Acu-Link.com,2013-03-26 00:06:00,
2013-03-25 20:21:00,35.1,25.6,29.86,SSW,202,3.2,-999.0,68,-99.99,,,0.00,Acu-Link.com,2013-03-26 00:21:00,
2013-03-25 20:51:00,34.7,24.9,29.86,South,180,2.7,-999.0,67,-99.99,,,0.00,Acu-Link.com,2013-03-26 00:51:00,
2013-03-25 21:22:00,34.7,24.9,29.87,SSW,202,5.8,-999.0,67,-99.99,,,0.00,Acu-Link.com,2013-03-26 01:22:00,
2013-03-25 21:37:00,34.3,24.5,29.87,West,270,2.7,-999.0,67,-99.99,,,0.00,Acu-Link.com,2013-03-26 01:37:00,
2013-03-25 21:52:00,34.5,24.7,29.87,SW,225,4.2,-999.0,67,-99.99,,,0.00,Acu-Link.com,2013-03-26 01:52:00,
2013-03-25 22:08:00,34.5,25.0,29.87,WSW,247,0.0,-999.0,68,-99.99,,,0.00,Acu-Link.com,2013-03-26 02:08:00,
2013-03-25 22:23:00,34.5,25.4,29.87,SSW,202,2.2,-999.0,69,-99.99,,,0.00,Acu-Link.com,2013-03-26 02:23:00,
2013-03-25 22:38:00,34.0,25.3,29.88,SSW,202,2.2,-999.0,70,-99.99,,,0.00,Acu-Link.com,2013-03-26 02:38:00,
2013-03-25 22:54:00,33.8,25.4,29.89,West,270,1.7,-999.0,71,-99.99,,,0.00,Acu-Link.com,2013-03-26 02:54:00,
2013-03-25 23:09:00,33.8,26.1,29.90,SSW,202,1.1,-999.0,73,-99.99,,,0.00,Acu-Link.com,2013-03-26 03:09:00,
2013-03-25 23:24:00,33.6,26.2,29.90,West,270,2.2,-999.0,74,-99.99,,,0.00,Acu-Link.com,2013-03-26 03:24:00,
2013-03-25 23:39:00,33.6,26.5,29.91,North,0,1.7,-999.0,75,-99.99,,,0.00,Acu-Link.com,2013-03-26 03:39:00,
2013-03-25 23:54:00,33.6,26.5,29.90,SSW,202,2.2,-999.0,75,-99.99,,,0.00,Acu-Link.com,2013-03-26 03:54:00,